createdAt,value
2018-11-14T00:00:45.950Z,3.40
2018-11-14T00:03:14.640Z,3.47
2018-11-14T00:05:43.144Z,3.57
2018-11-14T00:08:11.878Z,3.67
2018-11-14T00:10:40.448Z,3.17
2018-11-14T00:13:09.032Z,4.10
2018-11-14T00:15:37.656Z,3.27
2018-11-14T00:18:06.176Z,3.87
2018-11-14T00:20:34.678Z,3.20
2018-11-14T00:23:03.225Z,3.03
2018-11-14T00:25:31.713Z,3.30
2018-11-14T00:28:00.976Z,3.47
2018-11-14T00:30:29.086Z,3.47
2018-11-14T00:32:57.869Z,3.50
2018-11-14T00:35:26.591Z,3.40
2018-11-14T00:37:55.057Z,3.10
2018-11-14T00:40:23.912Z,3.43
2018-11-14T00:42:52.413Z,4.00
2018-11-14T00:45:22.111Z,3.57
2018-11-14T00:47:51.041Z,3.30
2018-11-14T00:50:20.151Z,3.90
2018-11-14T00:52:49.249Z,3.87
2018-11-14T00:55:20.114Z,3.80
2018-11-14T00:57:49.920Z,3.43
2018-11-14T01:00:20.625Z,3.77
2018-11-14T01:02:49.110Z,4.07
2018-11-14T01:05:18.233Z,4.80
2018-11-14T01:07:46.931Z,4.30
2018-11-14T01:10:16.917Z,4.07
2018-11-14T01:12:46.269Z,4.63
2018-11-14T01:15:16.625Z,4.37
2018-11-14T01:17:45.224Z,4.37
2018-11-14T01:20:15.579Z,4.53
2018-11-14T01:22:44.586Z,4.53
2018-11-14T01:25:14.182Z,5.00
2018-11-14T01:27:43.318Z,3.97
2018-11-14T01:30:16.675Z,4.90
2018-11-14T01:32:46.206Z,5.63
2018-11-14T01:35:15.286Z,5.23
2018-11-14T01:37:43.818Z,5.77
2018-11-14T01:40:15.782Z,5.63
2018-11-14T01:42:45.773Z,5.90
2018-11-14T01:45:14.932Z,6.63
2018-11-14T01:47:43.536Z,6.47
2018-11-14T01:50:12.256Z,6.12
2018-11-14T01:52:40.961Z,6.60
2018-11-14T01:55:11.566Z,6.83
2018-11-14T01:57:40.210Z,6.30
2018-11-14T02:00:12.968Z,6.13
2018-11-14T02:02:41.819Z,7.17
2018-11-14T02:05:11.242Z,5.53
2018-11-14T02:07:39.951Z,6.30
2018-11-14T02:10:11.056Z,6.53
2018-11-14T02:12:40.266Z,6.07
2018-11-14T02:15:12.210Z,6.30
2018-11-14T02:17:41.153Z,6.70
2018-11-14T02:20:10.215Z,6.63
2018-11-14T02:22:40.164Z,6.00
2018-11-14T02:25:09.756Z,5.63
2018-11-14T02:27:38.333Z,5.57
2018-11-14T02:30:10.680Z,6.40
2018-11-14T02:32:39.268Z,4.57
2018-11-14T02:35:08.232Z,4.77
2018-11-14T02:37:36.739Z,5.97
2018-11-14T02:40:09.802Z,6.30
2018-11-14T02:42:38.453Z,6.47
2018-11-14T02:45:08.318Z,7.17
2018-11-14T02:47:37.023Z,5.13
2018-11-14T02:50:06.306Z,6.07
2018-11-14T02:52:34.870Z,6.10
2018-11-14T02:55:03.399Z,5.73
2018-11-14T02:57:32.140Z,5.70
2018-11-14T03:00:00.693Z,6.13
2018-11-14T03:02:29.377Z,6.37
2018-11-14T03:04:57.897Z,6.87
2018-11-14T03:07:26.474Z,7.90
2018-11-14T03:09:55.039Z,6.63
2018-11-14T03:12:23.564Z,6.70
2018-11-14T03:14:51.974Z,7.13
2018-11-14T03:17:20.562Z,6.50
2018-11-14T03:19:49.046Z,7.10
2018-11-14T03:22:18.543Z,7.90
2018-11-14T03:24:47.191Z,7.63
2018-11-14T03:27:15.918Z,7.13
2018-11-14T03:29:44.672Z,5.73
2018-11-14T03:32:13.358Z,6.60
2018-11-14T03:34:42.111Z,6.80
2018-11-14T03:37:10.589Z,6.43
2018-11-14T03:39:39.073Z,6.87
2018-11-14T03:42:07.650Z,6.30
2018-11-14T03:44:36.108Z,6.23
2018-11-14T03:47:04.920Z,6.03
2018-11-14T03:49:33.415Z,6.93
2018-11-14T03:52:01.828Z,6.73
2018-11-14T03:54:30.473Z,6.93
2018-11-14T03:56:59.947Z,5.97
2018-11-14T03:59:28.389Z,5.17
2018-11-14T04:01:56.914Z,5.70
2018-11-14T04:04:25.624Z,6.23
2018-11-14T04:06:54.177Z,6.40
2018-11-14T04:09:22.701Z,6.27
2018-11-14T04:11:51.268Z,6.23
2018-11-14T04:14:19.813Z,6.40
2018-11-14T04:16:48.275Z,6.90
2018-11-14T04:19:16.965Z,6.43
2018-11-14T04:21:45.888Z,6.35
2018-11-14T04:24:14.732Z,6.67
2018-11-14T04:26:43.388Z,7.23
2018-11-14T04:29:11.948Z,7.37
2018-11-14T04:31:40.704Z,6.37
2018-11-14T04:34:09.114Z,6.10
2018-11-14T04:36:37.684Z,6.60
2018-11-14T04:39:08.827Z,6.10
2018-11-14T04:41:37.381Z,5.97
2018-11-14T04:44:06.879Z,6.60
2018-11-14T04:46:35.477Z,6.40
2018-11-14T04:49:04.222Z,7.27
2018-11-14T04:51:33.046Z,6.57
2018-11-14T04:54:02.277Z,6.87
2018-11-14T04:56:30.872Z,6.40
2018-11-14T04:59:00.361Z,5.90
2018-11-14T05:01:29.006Z,5.97
2018-11-14T05:03:57.593Z,5.63
2018-11-14T05:06:26.298Z,6.30
2018-11-14T05:08:54.888Z,4.90
2018-11-14T05:11:23.479Z,6.53
2018-11-14T05:13:52.102Z,6.80
2018-11-14T05:16:20.595Z,5.90
2018-11-14T05:18:49.194Z,6.20
2018-11-14T05:21:17.761Z,7.20
2018-11-14T05:23:46.345Z,6.70
2018-11-14T05:26:15.073Z,6.80
2018-11-14T05:28:43.646Z,6.17
2018-11-14T05:31:12.349Z,6.27
2018-11-14T05:33:40.952Z,7.03
2018-11-14T05:36:09.738Z,6.70
2018-11-14T05:38:38.450Z,6.30
2018-11-14T05:41:07.103Z,6.17
2018-11-14T05:43:35.635Z,6.93
2018-11-14T05:46:04.146Z,6.63
2018-11-14T05:48:32.614Z,4.87
2018-11-14T05:51:01.242Z,6.58
2018-11-14T05:53:29.851Z,6.00
2018-11-14T05:55:58.586Z,6.20
2018-11-14T05:58:27.102Z,6.93
2018-11-14T06:00:55.801Z,6.70
2018-11-14T06:03:24.419Z,7.47
2018-11-14T06:05:53.015Z,6.07
2018-11-14T06:08:21.680Z,7.50
2018-11-14T06:10:50.581Z,7.57
2018-11-14T06:13:19.157Z,8.03
2018-11-14T06:15:47.677Z,7.70
2018-11-14T06:18:17.288Z,8.27
2018-11-14T06:20:46.908Z,8.90
2018-11-14T06:23:15.487Z,7.37
2018-11-14T06:25:44.209Z,9.33
2018-11-14T06:28:14.807Z,7.47
2018-11-14T06:30:43.565Z,8.20
2018-11-14T06:33:12.652Z,7.10
2018-11-14T06:35:41.128Z,7.83
2018-11-14T06:38:09.877Z,7.50
2018-11-14T06:40:38.455Z,6.80
2018-11-14T06:43:07.081Z,7.70
2018-11-14T06:45:36.039Z,6.77
2018-11-14T06:48:05.220Z,7.03
2018-11-14T06:50:33.900Z,6.03
2018-11-14T06:53:04.834Z,5.00
2018-11-14T06:55:33.746Z,5.60
2018-11-14T06:58:02.454Z,6.13
2018-11-14T07:00:32.194Z,6.13
2018-11-14T07:03:01.898Z,5.23
2018-11-14T07:05:30.776Z,6.30
2018-11-14T07:07:59.556Z,5.40
2018-11-14T07:10:29.811Z,6.47
2018-11-14T07:13:03.582Z,5.47
2018-11-14T07:15:32.228Z,6.00
2018-11-14T07:18:00.925Z,5.60
2018-11-14T07:20:31.011Z,6.50
2018-11-14T07:22:59.602Z,5.00
2018-11-14T07:25:28.157Z,6.53
2018-11-14T07:27:57.054Z,6.30
2018-11-14T07:30:27.976Z,6.20
2018-11-14T07:32:59.132Z,6.10
2018-11-14T07:35:28.239Z,5.90
2018-11-14T07:39:02.513Z,4.80
2018-11-14T07:41:38.111Z,7.13
2018-11-14T07:44:07.163Z,4.37
2018-11-14T07:46:36.250Z,6.27
2018-11-14T07:49:05.342Z,5.57
2018-11-14T07:51:34.030Z,5.43
2018-11-14T07:54:02.790Z,5.40
2018-11-14T07:56:31.397Z,5.03
2018-11-14T07:59:00.107Z,4.07
2018-11-14T08:01:28.756Z,5.30
2018-11-14T08:03:57.562Z,6.37
2018-11-14T08:06:26.168Z,4.87
2018-11-14T08:08:54.695Z,5.60
2018-11-14T08:11:23.439Z,5.80
2018-11-14T08:13:52.086Z,4.97
2018-11-14T08:16:20.519Z,6.13
2018-11-14T08:18:49.204Z,6.30
2018-11-14T08:21:17.784Z,5.90
2018-11-14T08:23:46.430Z,5.10
2018-11-14T08:26:14.953Z,5.90
2018-11-14T08:28:44.738Z,6.07
2018-11-14T08:31:14.535Z,5.77
2018-11-14T08:33:43.034Z,5.77
2018-11-14T08:36:11.536Z,4.20
2018-11-14T08:38:40.141Z,4.57
2018-11-14T08:41:08.816Z,6.33
2018-11-14T08:43:37.615Z,5.03
2018-11-14T08:46:06.901Z,6.87
2018-11-14T08:48:35.480Z,3.60
2018-11-14T08:51:04.087Z,4.37
2018-11-14T08:53:33.201Z,4.80
2018-11-14T08:56:03.801Z,4.00
2018-11-14T08:58:33.401Z,4.37
2018-11-14T09:01:01.942Z,4.37
2018-11-14T09:03:30.644Z,4.10
2018-11-14T09:05:59.304Z,3.90
2018-11-14T09:08:28.002Z,3.87
2018-11-14T09:10:56.640Z,5.50
2018-11-14T09:13:25.161Z,4.53
2018-11-14T09:15:53.756Z,4.20
2018-11-14T09:18:22.426Z,6.67
2018-11-14T09:20:50.981Z,5.80
2018-11-14T09:23:19.445Z,5.07
2018-11-14T09:25:47.913Z,3.93
2018-11-14T09:28:16.798Z,6.60
2018-11-14T09:30:45.318Z,4.00
2018-11-14T09:33:13.895Z,3.77
2018-11-14T09:35:42.433Z,4.10
2018-11-14T09:38:10.978Z,3.33
2018-11-14T09:40:39.777Z,5.30
2018-11-14T09:43:08.317Z,4.57
2018-11-14T09:45:36.882Z,4.00
2018-11-14T09:48:05.521Z,4.60
2018-11-14T09:50:34.027Z,3.80
2018-11-14T09:53:04.138Z,3.93
2018-11-14T09:55:32.548Z,3.43
2018-11-14T09:58:01.219Z,4.70
2018-11-14T10:00:31.910Z,3.97
2018-11-14T10:03:04.514Z,2.53
2018-11-14T10:05:33.105Z,2.70
2018-11-14T10:08:01.825Z,3.27
2018-11-14T10:10:30.331Z,4.10
2018-11-14T10:12:59.103Z,3.70
2018-11-14T10:15:27.696Z,4.40
2018-11-14T10:17:56.206Z,4.13
2018-11-14T10:20:25.370Z,3.50
2018-11-14T10:22:54.029Z,3.17
2018-11-14T10:25:46.853Z,4.00
2018-11-14T10:28:15.559Z,3.30
2018-11-14T10:30:44.202Z,3.27
2018-11-14T10:33:12.762Z,4.10
2018-11-14T10:35:41.375Z,4.07
2018-11-14T10:38:09.974Z,4.03
2018-11-14T10:40:41.870Z,4.20
2018-11-14T10:43:10.532Z,2.90
2018-11-14T10:45:39.045Z,2.27
2018-11-14T10:48:07.646Z,2.17
2018-11-14T10:50:36.317Z,2.83
2018-11-14T10:53:05.251Z,2.93
2018-11-14T10:55:33.797Z,3.33
2018-11-14T10:58:02.399Z,3.40
2018-11-14T11:00:36.369Z,2.83
2018-11-14T11:03:12.987Z,2.30
2018-11-14T11:05:47.010Z,3.20
2018-11-14T11:08:22.775Z,2.80
2018-11-14T11:10:58.009Z,3.30
2018-11-14T11:13:32.003Z,3.30
2018-11-14T11:16:05.853Z,3.20
2018-11-14T11:18:35.166Z,3.30
2018-11-14T11:21:03.763Z,3.77
2018-11-14T11:23:32.356Z,3.00
2018-11-14T11:26:00.876Z,3.47
2018-11-14T11:28:29.702Z,3.20
2018-11-14T11:30:58.342Z,4.57
2018-11-14T11:33:26.759Z,4.20
2018-11-14T11:35:55.452Z,3.47
2018-11-14T11:38:24.179Z,3.50
2018-11-14T11:40:53.575Z,4.30
2018-11-14T11:43:22.400Z,3.50
2018-11-14T11:45:51.234Z,5.33
2018-11-14T11:48:20.360Z,4.30
2018-11-14T11:50:49.924Z,4.30
2018-11-14T11:53:18.683Z,4.30
2018-11-14T11:55:47.354Z,3.83
2018-11-14T11:58:16.128Z,4.23
2018-11-14T12:00:45.233Z,4.07
2018-11-14T12:03:14.025Z,3.50
2018-11-14T12:05:42.667Z,3.47
2018-11-14T12:08:11.389Z,3.00
2018-11-14T12:10:40.937Z,3.90
2018-11-14T12:13:09.616Z,3.53
2018-11-14T12:15:38.138Z,3.70
2018-11-14T12:18:07.215Z,3.60
2018-11-14T12:20:35.757Z,3.97
2018-11-14T12:23:04.193Z,3.60
2018-11-14T12:25:33.703Z,3.63
2018-11-14T12:28:02.413Z,3.67
2018-11-14T12:30:31.170Z,6.23
2018-11-14T12:33:00.129Z,6.73
2018-11-14T12:35:28.722Z,3.70
2018-11-14T12:37:57.406Z,3.93
2018-11-14T12:40:25.990Z,3.30
2018-11-14T12:42:55.264Z,3.93
2018-11-14T12:45:23.712Z,3.70
2018-11-14T12:47:52.252Z,3.87
2018-11-14T12:50:20.734Z,3.90
2018-11-14T12:52:49.482Z,4.30
2018-11-14T12:55:18.888Z,4.03
2018-11-14T12:57:47.630Z,3.93
2018-11-14T13:00:18.450Z,4.70
2018-11-14T13:02:47.764Z,5.53
2018-11-14T13:05:16.748Z,5.53
2018-11-14T13:07:45.964Z,5.90
2018-11-14T13:10:15.527Z,5.17
2018-11-14T13:12:45.516Z,5.57
2018-11-14T13:15:15.014Z,4.97
2018-11-14T13:17:44.913Z,5.20
2018-11-14T13:20:16.372Z,3.77
2018-11-14T13:22:45.622Z,3.67
2018-11-14T13:25:14.867Z,3.47
2018-11-14T13:27:44.655Z,3.20
2018-11-14T13:30:15.598Z,4.57
2018-11-14T13:32:45.144Z,4.67
2018-11-14T13:35:15.116Z,5.23
2018-11-14T13:37:44.661Z,5.77
2018-11-14T13:40:14.445Z,6.77
2018-11-14T13:42:43.404Z,5.37
2018-11-14T13:45:13.402Z,4.97
2018-11-14T13:47:42.583Z,3.40
2018-11-14T13:50:17.371Z,4.77
2018-11-14T13:52:46.325Z,4.10
2018-11-14T13:55:16.793Z,6.13
2018-11-14T13:57:46.760Z,7.67
2018-11-14T14:00:17.247Z,8.00
2018-11-14T14:02:46.379Z,5.87
2018-11-14T14:05:16.642Z,6.97
2018-11-14T14:07:45.528Z,6.63
2018-11-14T14:10:15.216Z,7.45
2018-11-14T14:12:44.905Z,9.63
2018-11-14T14:15:15.395Z,8.73
2018-11-14T14:17:44.960Z,8.30
2018-11-14T14:20:14.226Z,8.10
2018-11-14T14:22:42.967Z,7.30
2018-11-14T14:25:13.140Z,6.23
2018-11-14T14:27:41.750Z,6.40
2018-11-14T14:30:13.130Z,7.43
2018-11-14T14:32:42.860Z,6.13
2018-11-14T14:35:12.433Z,6.60
2018-11-14T14:37:41.303Z,6.17
2018-11-14T14:40:13.612Z,7.23
2018-11-14T14:42:42.397Z,7.50
2018-11-14T14:45:13.320Z,8.10
2018-11-14T14:47:42.199Z,8.47
2018-11-14T14:50:13.135Z,10.17
2018-11-14T14:52:42.248Z,8.80
2018-11-14T14:55:13.214Z,7.90
2018-11-14T14:57:42.264Z,7.67
2018-11-14T15:00:14.962Z,7.47
2018-11-14T15:02:44.880Z,7.93
2018-11-14T15:05:14.485Z,8.00
2018-11-14T15:07:43.434Z,7.03
2018-11-14T15:10:16.793Z,8.23
2018-11-14T15:12:47.234Z,9.43
2018-11-14T15:15:16.604Z,10.10
2018-11-14T15:17:45.455Z,10.63
2018-11-14T15:20:16.714Z,15.93
2018-11-14T15:22:45.742Z,16.10
2018-11-14T15:25:15.499Z,10.73
2018-11-14T15:27:44.743Z,9.17
2018-11-14T15:30:17.366Z,9.57
2018-11-14T15:32:46.260Z,10.97
2018-11-14T15:35:15.388Z,9.90
2018-11-14T15:37:44.722Z,9.10
2018-11-14T15:40:15.632Z,8.17
2018-11-14T15:42:45.263Z,8.40
2018-11-14T15:45:22.872Z,8.67
2018-11-14T15:47:51.363Z,9.70
2018-11-14T15:50:21.324Z,9.47
2018-11-14T15:52:51.009Z,12.73
2018-11-14T15:55:20.443Z,10.03
2018-11-14T15:57:48.982Z,9.57
2018-11-14T16:00:23.194Z,10.87
2018-11-14T16:02:51.949Z,10.53
2018-11-14T16:05:21.940Z,10.63
2018-11-14T16:07:51.731Z,8.63
2018-11-14T16:10:21.671Z,9.93
2018-11-14T16:12:50.285Z,11.03
2018-11-14T16:15:20.590Z,11.67
2018-11-14T16:17:49.128Z,12.17
2018-11-14T16:20:19.172Z,12.87
2018-11-14T16:22:47.950Z,13.40
2018-11-14T16:25:17.871Z,13.93
2018-11-14T16:27:47.608Z,16.60
2018-11-14T16:30:22.338Z,17.50
2018-11-14T16:32:52.021Z,19.50
2018-11-14T16:35:20.948Z,21.67
2018-11-14T16:37:49.624Z,26.70
2018-11-14T16:40:23.031Z,28.70
2018-11-14T16:42:52.429Z,32.97
2018-11-14T16:45:21.023Z,40.33
2018-11-14T16:47:49.911Z,46.73
2018-11-14T16:50:19.476Z,45.80
2018-11-14T16:52:48.282Z,41.80
2018-11-14T16:55:18.051Z,39.90
2018-11-14T16:57:47.622Z,43.57
2018-11-14T17:00:20.298Z,45.63
2018-11-14T17:02:48.830Z,44.43
2018-11-14T17:05:17.820Z,45.73
2018-11-14T17:07:46.515Z,35.40
2018-11-14T17:10:17.452Z,35.47
2018-11-14T17:12:48.020Z,35.67
2018-11-14T17:15:18.099Z,34.43
2018-11-14T17:17:46.653Z,44.93
2018-11-14T17:20:16.345Z,53.87
2018-11-14T17:22:46.369Z,31.83
2018-11-14T17:25:16.637Z,20.63
2018-11-14T17:27:45.808Z,17.50
2018-11-14T17:30:22.376Z,16.90
2018-11-14T17:32:51.486Z,15.60
2018-11-14T17:35:20.308Z,13.67
2018-11-14T17:37:48.831Z,15.23
2018-11-14T17:40:24.737Z,16.93
2018-11-14T17:42:53.823Z,17.27
2018-11-14T17:45:24.523Z,19.57
2018-11-14T17:47:53.822Z,19.53
2018-11-14T17:50:27.127Z,21.03
2018-11-14T17:52:56.312Z,23.73
2018-11-14T17:55:25.346Z,26.93
2018-11-14T17:57:54.401Z,26.77
2018-11-14T18:00:24.258Z,27.97
2018-11-14T18:02:53.077Z,26.13
2018-11-14T18:05:22.923Z,25.37
2018-11-14T18:07:52.098Z,25.93
2018-11-14T18:10:24.304Z,27.33
2018-11-14T18:12:53.843Z,27.03
2018-11-14T18:15:22.465Z,29.37
2018-11-14T18:17:52.090Z,29.90
2018-11-14T18:20:24.942Z,32.03
2018-11-14T18:22:54.281Z,32.00
2018-11-14T18:25:22.983Z,31.77
2018-11-14T18:27:52.180Z,32.60
2018-11-14T18:30:23.817Z,32.20
2018-11-14T18:32:53.021Z,32.70
2018-11-14T18:35:22.258Z,30.27
2018-11-14T18:37:51.798Z,30.93
2018-11-14T18:40:22.700Z,29.93
2018-11-14T18:42:51.401Z,30.87
2018-11-14T18:48:51.108Z,71.30
2018-11-14T18:51:19.655Z,57.77
2018-11-14T18:53:48.181Z,57.93
2018-11-14T18:56:17.596Z,59.17
2018-11-14T18:58:46.168Z,60.83
2018-11-14T19:01:15.113Z,53.57
2018-11-14T19:03:43.811Z,42.37
2018-11-14T19:06:12.315Z,34.37
2018-11-14T19:08:41.251Z,32.83
2018-11-14T19:11:09.722Z,34.93
2018-11-14T19:13:38.318Z,37.67
2018-11-14T19:16:07.202Z,29.00
2018-11-14T19:18:35.808Z,22.97
2018-11-14T19:21:05.295Z,21.53
2018-11-14T19:23:33.761Z,19.70
2018-11-14T19:26:02.565Z,19.27
2018-11-14T19:28:31.203Z,19.77
2018-11-14T19:30:59.765Z,20.13
2018-11-14T19:33:28.294Z,17.67
2018-11-14T19:35:56.957Z,17.87
2018-11-14T19:38:25.618Z,17.30
2018-11-14T19:40:54.119Z,17.23
2018-11-14T19:43:22.754Z,17.97
2018-11-14T19:45:51.353Z,17.97
2018-11-14T19:48:19.834Z,17.50
2018-11-14T19:50:48.455Z,19.13
2018-11-14T19:53:17.112Z,16.97
2018-11-14T19:55:45.954Z,18.27
2018-11-14T19:58:14.466Z,19.57
2018-11-14T20:00:43.242Z,21.70
2018-11-14T20:03:11.798Z,23.73
2018-11-14T20:05:40.902Z,25.03
2018-11-14T20:08:09.417Z,23.20
2018-11-14T20:10:38.903Z,26.93
2018-11-14T20:13:07.689Z,29.57
2018-11-14T20:15:37.176Z,25.47
2018-11-14T20:18:06.372Z,26.27
2018-11-14T20:20:36.343Z,25.43
2018-11-14T20:23:05.319Z,25.17
2018-11-14T20:25:34.120Z,26.63
2018-11-14T20:28:02.665Z,27.77
2018-11-14T20:30:35.920Z,27.10
2018-11-14T20:33:06.482Z,26.87
2018-11-14T20:35:35.196Z,27.93
2018-11-14T20:38:03.985Z,27.90
2018-11-14T20:40:32.514Z,29.50
2018-11-14T20:43:01.275Z,28.33
2018-11-14T20:45:31.317Z,30.53
2018-11-14T20:48:00.183Z,30.43
2018-11-14T20:50:29.428Z,30.57
2018-11-14T20:53:00.712Z,28.93
2018-11-14T20:55:29.761Z,30.73
2018-11-14T20:57:58.443Z,32.63
2018-11-14T21:00:29.239Z,32.03
2018-11-14T21:02:59.203Z,30.67
2018-11-14T21:05:28.373Z,29.33
2018-11-14T21:07:56.855Z,31.80
2018-11-14T21:10:27.743Z,32.20
2018-11-14T21:12:56.564Z,33.10
2018-11-14T21:15:35.144Z,33.47
2018-11-14T21:18:04.347Z,33.03
2018-11-14T21:20:32.914Z,36.37
2018-11-14T21:23:03.743Z,39.43
2018-11-14T21:25:32.229Z,40.03
2018-11-14T21:28:01.126Z,38.73
2018-11-14T21:30:30.656Z,38.13
2018-11-14T21:32:59.235Z,38.83
2018-11-14T21:35:30.396Z,44.70
2018-11-14T21:38:01.001Z,41.03
2018-11-14T21:40:29.569Z,37.03
2018-11-14T21:42:58.271Z,35.60
2018-11-14T21:45:27.678Z,35.97
2018-11-14T21:48:01.723Z,34.27
2018-11-14T21:50:31.095Z,34.63
2018-11-14T21:52:59.760Z,36.97
2018-11-14T21:55:28.274Z,38.07
2018-11-14T21:57:56.749Z,36.47
2018-11-14T22:00:30.583Z,36.03
2018-11-14T22:02:59.315Z,36.37
2018-11-14T22:05:28.089Z,34.57
2018-11-14T22:07:57.091Z,34.13
2018-11-14T22:10:26.317Z,36.37
2018-11-14T22:12:54.940Z,39.43
2018-11-14T22:15:24.658Z,41.87
2018-11-14T22:17:53.451Z,41.63
2018-11-14T22:20:23.520Z,42.83
2018-11-14T22:22:52.151Z,40.40
2018-11-14T22:25:21.903Z,43.63
2018-11-14T22:27:50.896Z,42.13
2018-11-14T22:30:21.938Z,41.50
2018-11-14T22:32:50.682Z,37.43
2018-11-14T22:35:20.471Z,34.20
2018-11-14T22:37:50.387Z,35.53
2018-11-14T22:40:20.442Z,35.98
2018-11-14T22:42:49.072Z,39.90
2018-11-14T22:45:20.169Z,37.53
2018-11-14T22:47:48.989Z,37.77
2018-11-14T22:50:19.142Z,41.37
2018-11-14T22:52:48.082Z,43.37
2018-11-14T22:55:17.797Z,50.37
2018-11-14T22:57:47.334Z,64.97
2018-11-14T23:00:53.921Z,64.62
2018-11-14T23:03:22.412Z,58.10
2018-11-14T23:05:50.977Z,56.00
2018-11-14T23:08:19.584Z,52.67
2018-11-14T23:10:48.046Z,52.47
2018-11-14T23:13:16.506Z,49.90
2018-11-14T23:15:47.096Z,60.57
2018-11-14T23:18:15.746Z,62.23
2018-11-14T23:20:44.618Z,51.80
2018-11-14T23:23:14.203Z,54.57
2018-11-14T23:25:42.793Z,45.77
2018-11-14T23:28:11.569Z,52.53
2018-11-14T23:30:40.039Z,49.10
2018-11-14T23:33:08.518Z,46.60
2018-11-14T23:35:37.076Z,47.27
2018-11-14T23:38:06.461Z,52.03
2018-11-14T23:40:35.222Z,49.73
2018-11-14T23:43:04.304Z,52.13
2018-11-14T23:45:33.067Z,50.77
2018-11-14T23:48:02.483Z,50.67
2018-11-14T23:50:32.238Z,49.67
2018-11-14T23:53:02.043Z,45.40
2018-11-14T23:55:31.327Z,43.03
2018-11-14T23:58:00.096Z,42.47
